createdAt,value
2022-11-02T00:01:48.153Z,3.99
2022-11-02T00:04:33.249Z,3.94
2022-11-02T00:07:18.165Z,3.97
2022-11-02T00:10:03.106Z,3.96
2022-11-02T00:12:49.062Z,3.97
2022-11-02T00:15:36.198Z,3.95
2022-11-02T00:18:21.573Z,3.97
2022-11-02T00:21:06.571Z,3.98
2022-11-02T00:23:52.769Z,4.03
2022-11-02T00:26:37.979Z,4.09
2022-11-02T00:29:23.685Z,4.11
2022-11-02T00:32:08.462Z,4.12
2022-11-02T00:34:53.450Z,4.14
2022-11-02T00:37:38.596Z,4.16
2022-11-02T00:40:23.489Z,4.13
2022-11-02T00:43:08.587Z,4.13
2022-11-02T00:45:53.540Z,4.11
2022-11-02T00:48:39.926Z,4.10
2022-11-02T00:51:25.386Z,4.11
2022-11-02T00:54:10.303Z,4.15
2022-11-02T00:56:55.387Z,4.12
2022-11-02T00:59:40.281Z,4.01
2022-11-02T01:02:26.336Z,3.88
2022-11-02T01:05:11.978Z,3.79
2022-11-02T01:07:57.009Z,3.67
2022-11-02T01:10:45.527Z,3.57
2022-11-02T01:13:34.506Z,3.52
2022-11-02T01:16:19.703Z,3.53
2022-11-02T01:19:04.504Z,3.51
2022-11-02T01:21:49.460Z,3.46
2022-11-02T01:24:34.664Z,3.38
2022-11-02T01:27:20.758Z,3.31
2022-11-02T01:30:06.184Z,3.22
2022-11-02T01:32:51.219Z,3.20
2022-11-02T01:35:36.433Z,3.08
2022-11-02T01:38:21.462Z,3.00
2022-11-02T01:41:06.274Z,3.04
2022-11-02T01:43:55.618Z,3.08
2022-11-02T01:46:44.794Z,3.10
2022-11-02T01:49:34.858Z,3.05
2022-11-02T01:52:27.387Z,3.07
2022-11-02T01:55:18.725Z,3.08
2022-11-02T01:58:09.417Z,3.03
2022-11-02T02:00:54.413Z,3.05
2022-11-02T02:03:40.697Z,2.99
2022-11-02T02:06:27.750Z,2.96
2022-11-02T02:09:16.320Z,3.00
2022-11-02T02:12:00.998Z,3.15
2022-11-02T02:14:46.694Z,3.23
2022-11-02T02:17:45.277Z,3.38
2022-11-02T02:20:51.529Z,3.50
2022-11-02T02:23:48.356Z,3.58
2022-11-02T02:26:37.039Z,3.66
2022-11-02T02:29:54.436Z,3.71
2022-11-02T02:33:20.667Z,3.88
2022-11-02T02:36:54.886Z,3.91
2022-11-02T02:39:48.540Z,3.93
2022-11-02T02:42:39.326Z,4.02
2022-11-02T02:45:32.871Z,4.30
2022-11-02T02:48:24.050Z,4.30
2022-11-02T02:51:26.080Z,4.34
2022-11-02T02:54:18.566Z,4.35
2022-11-02T02:57:10.528Z,4.41
2022-11-02T02:59:55.482Z,4.55
2022-11-02T03:02:42.109Z,4.78
2022-11-02T03:05:33.759Z,4.98
2022-11-02T03:08:20.902Z,5.11
2022-11-02T03:11:17.359Z,5.21
2022-11-02T03:14:40.649Z,5.29
2022-11-02T03:17:57.350Z,5.39
2022-11-02T03:21:10.298Z,5.43
2022-11-02T03:24:03.404Z,5.43
2022-11-02T03:27:04.724Z,5.45
2022-11-02T03:30:08.723Z,5.46
2022-11-02T03:33:08.073Z,5.42
2022-11-02T03:35:59.004Z,5.41
2022-11-02T03:38:49.843Z,5.42
2022-11-02T03:41:38.706Z,5.41
2022-11-02T03:44:26.113Z,5.42
2022-11-02T03:47:14.246Z,5.43
2022-11-02T03:50:01.625Z,5.47
2022-11-02T03:52:50.118Z,5.48
2022-11-02T03:55:40.485Z,5.51
2022-11-02T03:58:25.544Z,5.54
2022-11-02T04:01:11.938Z,5.57
2022-11-02T04:03:57.603Z,5.59
2022-11-02T04:06:44.519Z,5.62
2022-11-02T04:09:29.919Z,5.63
2022-11-02T04:12:34.087Z,5.66
2022-11-02T04:15:19.493Z,5.68
2022-11-02T04:18:22.911Z,5.70
2022-11-02T04:21:07.788Z,5.74
2022-11-02T04:24:10.838Z,5.75
2022-11-02T04:26:55.651Z,5.80
2022-11-02T04:29:40.543Z,5.81
2022-11-02T04:32:44.202Z,5.83
2022-11-02T04:35:33.905Z,5.85
2022-11-02T04:38:37.689Z,5.85
2022-11-02T04:41:41.806Z,5.86
2022-11-02T04:44:32.155Z,5.87
2022-11-02T04:47:27.773Z,5.86
2022-11-02T04:50:12.741Z,5.90
2022-11-02T04:53:00.498Z,5.95
2022-11-02T04:55:47.160Z,5.95
2022-11-02T04:58:32.221Z,5.97
2022-11-02T05:01:19.302Z,6.06
2022-11-02T05:04:06.091Z,6.10
2022-11-02T05:06:56.406Z,6.12
2022-11-02T05:09:43.981Z,6.14
2022-11-02T05:12:30.495Z,6.14
2022-11-02T05:15:17.079Z,6.19
2022-11-02T05:18:02.199Z,6.24
2022-11-02T05:20:53.136Z,6.26
2022-11-02T05:23:39.552Z,6.28
2022-11-02T05:26:24.541Z,6.28
2022-11-02T05:29:09.483Z,6.31
2022-11-02T05:31:56.502Z,6.39
2022-11-02T05:34:41.368Z,6.41
2022-11-02T05:37:27.322Z,6.51
2022-11-02T05:40:12.331Z,6.54
2022-11-02T05:43:01.454Z,6.59
2022-11-02T05:46:00.999Z,6.66
2022-11-02T05:48:45.535Z,6.68
2022-11-02T05:51:30.493Z,6.68
2022-11-02T05:54:15.504Z,6.67
2022-11-02T05:57:00.387Z,6.75
2022-11-02T05:59:48.393Z,6.84
2022-11-02T06:02:34.312Z,7.05
2022-11-02T06:05:19.336Z,7.12
2022-11-02T06:08:04.520Z,7.24
2022-11-02T06:10:49.561Z,7.23
2022-11-02T06:13:35.189Z,7.16
2022-11-02T06:16:23.019Z,7.16
2022-11-02T06:19:08.222Z,7.22
2022-11-02T06:21:53.192Z,7.26
2022-11-02T06:24:37.959Z,7.28
2022-11-02T06:27:22.967Z,7.29
2022-11-02T06:30:08.824Z,7.30
2022-11-02T06:32:54.247Z,7.30
2022-11-02T06:35:39.390Z,7.32
2022-11-02T06:38:24.300Z,7.38
2022-11-02T06:41:09.692Z,7.45
2022-11-02T06:43:56.023Z,7.47
2022-11-02T06:46:41.116Z,7.60
2022-11-02T06:49:26.066Z,7.70
2022-11-02T06:52:11.066Z,7.74
2022-11-02T06:54:56.995Z,7.84
2022-11-02T06:57:42.615Z,7.89
2022-11-02T07:00:29.186Z,7.91
2022-11-02T07:03:14.441Z,8.00
2022-11-02T07:05:59.779Z,8.02
2022-11-02T07:08:44.697Z,8.09
2022-11-02T07:11:29.484Z,8.11
2022-11-02T07:14:14.402Z,8.14
2022-11-02T07:16:59.438Z,8.20
2022-11-02T07:19:44.554Z,8.21
2022-11-02T07:22:29.444Z,8.21
2022-11-02T07:25:14.759Z,8.22
2022-11-02T07:28:01.450Z,8.23
2022-11-02T07:30:48.216Z,8.26
2022-11-02T07:33:33.193Z,8.34
2022-11-02T07:36:18.297Z,8.38
2022-11-02T07:39:04.068Z,8.39
2022-11-02T07:41:53.312Z,8.32
2022-11-02T07:44:41.703Z,8.33
2022-11-02T07:47:29.538Z,8.27
2022-11-02T07:50:17.379Z,8.26
2022-11-02T07:53:02.606Z,8.25
2022-11-02T07:55:47.579Z,8.29
2022-11-02T07:58:32.905Z,8.35
2022-11-02T08:01:17.632Z,8.43
2022-11-02T08:04:02.928Z,8.46
2022-11-02T08:06:47.534Z,8.44
2022-11-02T08:09:32.568Z,8.33
2022-11-02T08:12:17.776Z,8.28
2022-11-02T08:15:07.341Z,8.20
2022-11-02T08:18:20.725Z,8.13
2022-11-02T08:21:07.999Z,8.16
2022-11-02T08:23:58.344Z,8.22
2022-11-02T08:26:45.358Z,8.22
2022-11-02T08:29:31.512Z,8.24
2022-11-02T08:32:16.513Z,8.31
2022-11-02T08:35:01.394Z,8.35
2022-11-02T08:37:55.291Z,8.50
2022-11-02T08:40:40.897Z,8.48
2022-11-02T08:43:25.869Z,8.49
2022-11-02T08:46:15.742Z,8.52
2022-11-02T08:49:01.490Z,8.55
2022-11-02T08:51:46.650Z,8.59
2022-11-02T08:54:31.542Z,8.63
2022-11-02T08:57:16.481Z,8.67
2022-11-02T09:00:01.677Z,8.74
2022-11-02T09:03:13.960Z,8.68
2022-11-02T09:06:00.485Z,8.64
2022-11-02T09:08:45.125Z,8.64
2022-11-02T09:11:30.436Z,8.59
2022-11-02T09:14:15.524Z,8.55
2022-11-02T09:17:03.130Z,8.49
2022-11-02T09:19:48.078Z,8.50
2022-11-02T09:22:32.919Z,8.51
2022-11-02T09:25:18.489Z,8.50
2022-11-02T09:28:03.595Z,8.59
2022-11-02T09:30:48.570Z,8.64
2022-11-02T09:33:35.545Z,8.73
2022-11-02T09:36:20.417Z,8.73
2022-11-02T09:39:05.611Z,8.81
2022-11-02T09:42:06.756Z,8.81
2022-11-02T09:45:05.695Z,8.80
2022-11-02T09:48:27.068Z,8.76
2022-11-02T09:51:11.127Z,8.73
2022-11-02T09:54:11.739Z,8.71
2022-11-02T09:57:03.600Z,8.69
2022-11-02T09:59:48.833Z,8.69
2022-11-02T10:02:52.118Z,8.70
2022-11-02T10:05:54.193Z,8.80
2022-11-02T10:08:57.308Z,8.83
2022-11-02T10:12:07.059Z,8.86
2022-11-02T10:15:39.862Z,8.83
2022-11-02T10:18:27.609Z,8.84
2022-11-02T10:21:18.846Z,8.89
2022-11-02T10:24:21.011Z,8.94
2022-11-02T10:27:19.642Z,8.89
2022-11-02T10:30:11.680Z,8.81
2022-11-02T10:32:57.078Z,8.89
2022-11-02T10:39:14.778Z,8.86
2022-11-02T10:42:14.738Z,9.04
2022-11-02T10:45:07.887Z,9.03
2022-11-02T10:48:12.285Z,9.04
2022-11-02T10:51:06.784Z,9.03
2022-11-02T10:53:52.757Z,8.97
2022-11-02T10:56:39.417Z,9.07
2022-11-02T10:59:25.001Z,9.00
2022-11-02T11:02:14.140Z,8.98
2022-11-02T11:05:13.599Z,8.94
2022-11-02T11:07:59.847Z,8.87
2022-11-02T11:10:45.228Z,8.87
2022-11-02T11:16:39.404Z,8.89
2022-11-02T11:22:28.977Z,9.00
2022-11-02T11:25:27.194Z,8.96
2022-11-02T11:28:32.815Z,8.86
2022-11-02T11:31:18.538Z,8.87
2022-11-02T11:34:03.260Z,8.89
2022-11-02T11:36:48.237Z,8.88
2022-11-02T11:39:33.811Z,8.85
2022-11-02T11:42:22.179Z,8.83
2022-11-02T11:45:25.769Z,8.83
2022-11-02T11:48:34.340Z,8.80
2022-11-02T11:51:30.199Z,8.74
2022-11-02T11:54:23.621Z,8.75
2022-11-02T11:57:23.036Z,8.74
2022-11-02T12:00:26.800Z,8.65
2022-11-02T12:03:13.452Z,8.61
2022-11-02T12:06:25.008Z,8.60
2022-11-02T12:09:31.530Z,8.62
2022-11-02T12:12:16.769Z,8.61
2022-11-02T12:15:36.912Z,8.60
2022-11-02T12:18:40.019Z,8.62
2022-11-02T12:21:35.720Z,8.68
2022-11-02T12:24:32.422Z,8.78
2022-11-02T12:27:22.982Z,8.83
2022-11-02T12:30:45.452Z,8.83
2022-11-02T12:33:53.915Z,8.86
2022-11-02T12:37:31.341Z,8.80
2022-11-02T12:40:10.615Z,8.72
2022-11-02T12:43:14.085Z,8.64
2022-11-02T12:46:01.409Z,8.56
2022-11-02T12:49:04.562Z,8.51
2022-11-02T12:51:58.149Z,8.53
2022-11-02T12:54:47.445Z,8.51
2022-11-02T12:57:37.576Z,8.51
2022-11-02T13:00:23.026Z,8.53
2022-11-02T13:03:11.057Z,8.52
2022-11-02T13:06:05.918Z,8.49
2022-11-02T13:08:58.775Z,8.50
2022-11-02T13:11:50.998Z,8.47
2022-11-02T13:14:42.126Z,8.47
2022-11-02T13:17:41.317Z,8.46
2022-11-02T13:20:55.127Z,8.47
2022-11-02T13:23:46.463Z,8.47
2022-11-02T13:26:41.468Z,8.44
2022-11-02T13:29:35.013Z,8.51
2022-11-02T13:32:52.330Z,8.54
2022-11-02T13:35:42.427Z,8.55
2022-11-02T13:38:41.357Z,8.59
2022-11-02T13:41:47.867Z,8.64
2022-11-02T13:44:41.551Z,8.67
2022-11-02T13:47:45.175Z,8.64
2022-11-02T13:50:32.341Z,8.67
2022-11-02T13:53:27.294Z,8.65
2022-11-02T13:56:21.814Z,8.67
2022-11-02T13:59:43.179Z,8.60
2022-11-02T14:02:33.434Z,8.60
2022-11-02T14:05:31.202Z,8.60
2022-11-02T14:08:39.675Z,8.57
2022-11-02T14:11:35.661Z,8.57
2022-11-02T14:14:23.005Z,8.57
2022-11-02T14:17:17.796Z,8.56
2022-11-02T14:20:04.343Z,8.56
2022-11-02T14:23:10.737Z,8.58
2022-11-02T14:26:00.274Z,8.59
2022-11-02T14:28:45.117Z,8.58
2022-11-02T14:31:44.053Z,8.60
2022-11-02T14:35:16.760Z,8.64
2022-11-02T14:38:25.762Z,8.62
2022-11-02T14:41:58.460Z,8.63
2022-11-02T14:44:58.288Z,8.62
2022-11-02T14:47:43.252Z,8.59
2022-11-02T14:50:28.635Z,8.61
2022-11-02T14:53:26.008Z,8.61
2022-11-02T14:56:11.073Z,8.61
2022-11-02T14:58:57.162Z,8.61
2022-11-02T15:01:56.832Z,8.60
2022-11-02T15:04:51.716Z,8.62
2022-11-02T15:07:39.969Z,8.60
2022-11-02T15:10:39.605Z,8.61
2022-11-02T15:13:44.924Z,8.61
2022-11-02T15:16:40.806Z,8.63
2022-11-02T15:19:40.783Z,8.64
2022-11-02T15:22:28.400Z,8.67
2022-11-02T15:25:20.543Z,8.68
2022-11-02T15:28:11.582Z,8.71
2022-11-02T15:31:02.971Z,8.70
2022-11-02T15:34:05.127Z,8.71
2022-11-02T15:36:50.585Z,8.73
2022-11-02T15:39:35.883Z,8.74
2022-11-02T15:42:38.936Z,8.74
2022-11-02T15:45:49.073Z,8.74
2022-11-02T15:48:58.886Z,8.79
2022-11-02T15:51:52.695Z,8.79
2022-11-02T15:54:52.554Z,8.81
2022-11-02T15:57:59.338Z,8.82
2022-11-02T16:01:04.857Z,8.82
2022-11-02T16:03:58.430Z,8.81
2022-11-02T16:06:43.760Z,8.79
2022-11-02T16:09:35.542Z,8.83
2022-11-02T16:12:24.203Z,8.81
2022-11-02T16:15:14.067Z,8.83
2022-11-02T16:17:59.077Z,8.84
2022-11-02T16:20:44.970Z,8.85
2022-11-02T16:23:32.926Z,8.83
2022-11-02T16:26:24.135Z,8.86
2022-11-02T16:29:09.823Z,8.86
2022-11-02T16:31:54.498Z,8.87
2022-11-02T16:34:40.029Z,8.86
2022-11-02T16:37:25.112Z,8.87
2022-11-02T16:40:16.999Z,8.89
2022-11-02T16:43:02.061Z,8.88
2022-11-02T16:45:49.688Z,8.89
2022-11-02T16:48:35.157Z,8.89
2022-11-02T16:51:20.535Z,8.90
2022-11-02T16:54:33.027Z,8.89
2022-11-02T16:57:23.877Z,8.88
2022-11-02T17:00:19.249Z,8.91
2022-11-02T17:03:09.958Z,8.90
2022-11-02T17:05:56.271Z,8.91
2022-11-02T17:08:41.924Z,8.91
2022-11-02T17:11:27.607Z,8.92
2022-11-02T17:14:13.315Z,8.92
2022-11-02T17:17:02.710Z,8.94
2022-11-02T17:19:54.446Z,8.95
2022-11-02T17:22:51.368Z,8.94
2022-11-02T17:25:38.873Z,8.94
2022-11-02T17:28:43.828Z,8.97
2022-11-02T17:31:40.424Z,8.98
2022-11-02T17:34:25.277Z,9.00
2022-11-02T17:37:24.253Z,8.99
2022-11-02T17:40:11.399Z,9.01
2022-11-02T17:42:59.129Z,9.04
2022-11-02T17:45:43.910Z,9.03
2022-11-02T17:48:30.406Z,9.04
2022-11-02T17:51:15.594Z,9.07
2022-11-02T17:54:00.370Z,9.07
2022-11-02T17:56:45.554Z,9.09
2022-11-02T17:59:30.429Z,9.09
2022-11-02T18:02:15.659Z,9.12
2022-11-02T18:05:00.962Z,9.12
2022-11-02T18:07:48.806Z,9.14
2022-11-02T18:10:37.487Z,9.16
2022-11-02T18:13:23.751Z,9.17
2022-11-02T18:16:08.497Z,9.17
2022-11-02T18:18:53.542Z,9.19
2022-11-02T18:21:38.577Z,9.21
2022-11-02T18:24:23.828Z,9.21
2022-11-02T18:27:08.702Z,9.22
2022-11-02T18:29:53.549Z,9.25
2022-11-02T18:32:40.389Z,9.27
2022-11-02T18:35:25.366Z,9.24
2022-11-02T18:38:11.041Z,9.29
2022-11-02T18:40:55.588Z,9.28
2022-11-02T18:43:40.474Z,9.30
2022-11-02T18:46:29.659Z,9.30
2022-11-02T18:49:15.731Z,9.31
2022-11-02T18:52:00.529Z,9.32
2022-11-02T18:54:45.578Z,9.33
2022-11-02T18:57:32.156Z,9.35
2022-11-02T19:00:17.678Z,9.36
2022-11-02T19:03:02.215Z,9.37
2022-11-02T19:06:05.694Z,9.38
2022-11-02T19:09:09.050Z,9.41
2022-11-02T19:12:00.087Z,9.46
2022-11-02T19:14:46.916Z,9.48
2022-11-02T19:17:31.760Z,9.50
2022-11-02T19:20:16.454Z,9.51
2022-11-02T19:23:01.366Z,9.52
2022-11-02T19:25:50.840Z,9.54
2022-11-02T19:28:35.508Z,9.55
2022-11-02T19:31:20.464Z,9.58
2022-11-02T19:34:05.851Z,9.57
2022-11-02T19:36:50.480Z,9.61
2022-11-02T19:39:35.670Z,9.61
2022-11-02T19:42:20.601Z,9.63
2022-11-02T19:45:05.837Z,9.67
2022-11-02T19:47:50.463Z,9.68
2022-11-02T19:50:35.663Z,9.69
2022-11-02T19:53:20.407Z,9.68
2022-11-02T19:56:09.759Z,9.71
2022-11-02T19:58:55.323Z,9.72
2022-11-02T20:01:41.787Z,9.73
2022-11-02T20:04:26.487Z,9.71
2022-11-02T20:07:11.315Z,9.72
2022-11-02T20:09:58.779Z,9.73
2022-11-02T20:12:44.567Z,9.72
2022-11-02T20:15:29.711Z,9.70
2022-11-02T20:18:19.531Z,9.69
2022-11-02T20:21:09.495Z,9.71
2022-11-02T20:23:54.737Z,9.69
2022-11-02T20:26:40.634Z,9.71
2022-11-02T20:29:25.127Z,9.72
2022-11-02T20:32:11.883Z,9.74
2022-11-02T20:34:56.838Z,9.78
2022-11-02T20:37:41.624Z,9.82
2022-11-02T20:40:28.192Z,9.81
2022-11-02T20:43:13.180Z,9.84
2022-11-02T20:49:22.167Z,9.86
2022-11-02T20:52:14.278Z,9.88
2022-11-02T20:54:58.901Z,9.87
2022-11-02T20:57:48.146Z,9.90
2022-11-02T21:00:33.250Z,9.91
2022-11-02T21:03:19.354Z,9.92
2022-11-02T21:06:05.127Z,9.95
2022-11-02T21:08:50.034Z,9.96
2022-11-02T21:11:53.372Z,9.96
2022-11-02T21:14:38.366Z,9.95
2022-11-02T21:17:23.544Z,9.94
2022-11-02T21:23:13.868Z,9.99
2022-11-02T21:26:04.694Z,9.99
2022-11-02T21:28:49.801Z,10.02
2022-11-02T21:31:34.651Z,10.01
2022-11-02T21:34:19.690Z,10.01
2022-11-02T21:37:06.301Z,10.01
2022-11-02T21:39:51.723Z,10.05
2022-11-02T21:42:36.356Z,10.03
2022-11-02T21:45:25.841Z,10.04
2022-11-02T21:48:10.838Z,10.05
2022-11-02T21:50:59.846Z,10.07
2022-11-02T21:53:45.803Z,10.07
2022-11-02T21:56:31.459Z,10.07
2022-11-02T21:59:16.063Z,10.08
2022-11-02T22:02:01.228Z,10.09
2022-11-02T22:04:52.388Z,10.09
2022-11-02T22:07:57.117Z,10.11
2022-11-02T22:10:41.745Z,10.11
2022-11-02T22:13:32.717Z,10.14
2022-11-02T22:16:27.239Z,10.14
2022-11-02T22:19:13.761Z,10.15
2022-11-02T22:21:59.411Z,10.14
2022-11-02T22:24:45.035Z,10.15
2022-11-02T22:27:29.868Z,10.17
2022-11-02T22:30:14.907Z,10.16
2022-11-02T22:32:59.766Z,10.13
2022-11-02T22:35:44.708Z,10.12
2022-11-02T22:38:47.749Z,10.14
2022-11-02T22:41:38.252Z,10.18
2022-11-02T22:44:22.845Z,10.17
2022-11-02T22:47:07.816Z,10.19
2022-11-02T22:49:52.788Z,10.18
2022-11-02T22:52:37.631Z,10.17
2022-11-02T22:55:22.866Z,10.17
2022-11-02T22:58:07.674Z,10.15
2022-11-02T23:00:53.569Z,10.14
2022-11-02T23:03:38.497Z,10.14
2022-11-02T23:06:23.864Z,10.11
2022-11-02T23:09:10.479Z,10.14
2022-11-02T23:11:55.328Z,10.11
2022-11-02T23:14:40.243Z,10.11
2022-11-02T23:17:25.095Z,10.09
2022-11-02T23:20:10.547Z,10.14
2022-11-02T23:23:17.173Z,10.15
2022-11-02T23:26:02.005Z,10.14
2022-11-02T23:29:05.444Z,10.13
2022-11-02T23:32:08.659Z,10.12
2022-11-02T23:35:16.144Z,10.12
2022-11-02T23:38:03.082Z,10.11
2022-11-02T23:40:48.091Z,10.08
2022-11-02T23:43:32.764Z,10.09
2022-11-02T23:46:17.818Z,10.11
2022-11-02T23:49:02.817Z,10.09
2022-11-02T23:52:06.031Z,10.11
2022-11-02T23:55:09.234Z,10.11
2022-11-02T23:57:54.236Z,10.11
